Terminal Aerodrome Forecast
Issued by NWS

Home | Current Version | Previous Version | Text Only | Print | Product List | Glossary On
Versions: 1 2 3 4 5 6 7 8 9 10 11 12 13 14 15 16 17 18
207
FTPA31 PHFO 072328
TAFHLI
TAF
PHLI 072328Z 0800/0824 09008KT P6SM SCT015 SCT035 BKN200
     FM080600 29005KT P6SM SCT020 SCT035 BKN150
     FM081800 17008KT 6SM -SHRA SCT015 BKN030 OVC050=

USA.gov is the U.S. government's official web portal to all federal, state and local government web resources and services.